createdAt,value
2019-02-08T00:00:02.060Z,4.1
2019-02-08T00:05:01.454Z,4.18
2019-02-08T00:10:01.823Z,4.21
2019-02-08T00:15:01.115Z,4.16
2019-02-08T00:20:01.553Z,4.16
2019-02-08T00:25:02.086Z,4.21
2019-02-08T00:30:01.358Z,4.23
2019-02-08T00:35:01.748Z,4.27
2019-02-08T00:40:02.048Z,4.39
2019-02-08T00:45:01.331Z,4.5
2019-02-08T00:50:01.635Z,4.56
2019-02-08T00:55:01.963Z,4.57
2019-02-08T01:00:01.205Z,4.51
2019-02-08T01:05:01.539Z,4.57
2019-02-08T01:10:01.862Z,4.58
2019-02-08T01:15:01.139Z,4.72
2019-02-08T01:20:01.448Z,4.82
2019-02-08T01:25:01.748Z,4.94
2019-02-08T01:30:01.988Z,4.94
2019-02-08T01:35:01.352Z,4.91
2019-02-08T01:40:01.731Z,4.84
2019-02-08T01:45:02.075Z,4.77
2019-02-08T01:50:01.467Z,4.69
2019-02-08T01:55:01.853Z,4.66
2019-02-08T02:00:01.105Z,4.66
2019-02-08T02:05:01.626Z,4.66
2019-02-08T02:10:01.991Z,4.76
2019-02-08T02:15:01.289Z,4.81
2019-02-08T02:20:01.486Z,4.89
2019-02-08T02:25:01.744Z,4.91
2019-02-08T02:30:02.006Z,4.9
2019-02-08T02:35:01.296Z,4.88
2019-02-08T02:40:01.594Z,4.83
2019-02-08T02:45:01.937Z,4.82
2019-02-08T02:50:01.251Z,4.84
2019-02-08T02:55:01.548Z,4.86
2019-02-08T03:00:01.828Z,4.86
2019-02-08T03:05:01.127Z,4.87
2019-02-08T03:10:01.420Z,4.86
2019-02-08T03:15:01.694Z,4.82
2019-02-08T03:20:01.977Z,4.84
2019-02-08T03:25:01.351Z,4.88
2019-02-08T03:30:01.599Z,4.9
2019-02-08T03:35:01.869Z,4.84
2019-02-08T03:40:01.970Z,4.83
2019-02-08T03:45:01.245Z,4.84
2019-02-08T03:50:01.532Z,4.86
2019-02-08T03:55:01.812Z,4.91
2019-02-08T04:00:01.973Z,4.98
2019-02-08T04:05:01.238Z,5.06
2019-02-08T04:10:01.532Z,5.08
2019-02-08T04:15:01.876Z,5.19
2019-02-08T04:20:01.205Z,5.22
2019-02-08T04:25:01.526Z,5.3
2019-02-08T04:30:01.817Z,5.35
2019-02-08T04:35:01.227Z,5.36
2019-02-08T04:40:01.585Z,5.41
2019-02-08T04:45:01.913Z,5.46
2019-02-08T04:50:01.160Z,5.46
2019-02-08T04:55:01.458Z,5.5
2019-02-08T05:00:01.764Z,5.49
2019-02-08T05:05:02.040Z,5.53
2019-02-08T05:10:01.286Z,5.55
2019-02-08T05:15:01.551Z,5.62
2019-02-08T05:20:01.893Z,5.55
2019-02-08T05:25:01.170Z,5.45
2019-02-08T05:30:01.424Z,5.39
2019-02-08T05:35:01.904Z,5.37
2019-02-08T05:40:01.390Z,5.36
2019-02-08T05:45:01.719Z,5.38
2019-02-08T05:50:02.010Z,5.33
2019-02-08T05:55:01.278Z,5.33
2019-02-08T06:00:01.578Z,5.26
2019-02-08T06:05:01.961Z,5.25
2019-02-08T06:10:01.215Z,5.33
2019-02-08T06:15:01.648Z,5.39
2019-02-08T06:20:01.960Z,5.46
2019-02-08T06:25:03.388Z,5.49
2019-02-08T06:30:01.121Z,5.57
2019-02-08T06:35:01.502Z,5.48
2019-02-08T06:40:01.835Z,5.52
2019-02-08T06:45:01.180Z,5.52
2019-02-08T06:50:01.517Z,5.62
2019-02-08T06:55:01.815Z,5.62
2019-02-08T07:00:01.134Z,5.7
2019-02-08T07:05:01.450Z,5.69
2019-02-08T07:10:01.754Z,5.74
2019-02-08T07:15:02.071Z,5.75
2019-02-08T07:20:01.315Z,5.85
2019-02-08T07:25:01.643Z,5.91
2019-02-08T07:30:01.922Z,5.97
2019-02-08T07:35:01.251Z,5.98
2019-02-08T07:40:01.518Z,6.01
2019-02-08T07:45:01.813Z,6.09
2019-02-08T07:50:01.119Z,6.1
2019-02-08T07:55:01.455Z,6.11
2019-02-08T08:00:01.761Z,6.16
2019-02-08T08:05:02.071Z,6.23
2019-02-08T08:10:01.314Z,6.35
2019-02-08T08:15:01.619Z,6.39
2019-02-08T08:20:01.900Z,6.42
2019-02-08T08:25:01.160Z,6.44
2019-02-08T08:30:01.403Z,6.49
2019-02-08T08:35:01.790Z,6.52
2019-02-08T08:40:02.050Z,6.56
2019-02-08T08:45:01.291Z,6.58
2019-02-08T08:50:01.564Z,6.63
2019-02-08T08:55:01.877Z,6.64
2019-02-08T09:00:01.153Z,6.68
2019-02-08T09:05:01.453Z,6.74
2019-02-08T09:10:01.749Z,6.78
2019-02-08T09:15:02.059Z,6.81
2019-02-08T09:20:01.309Z,6.86
2019-02-08T09:25:01.562Z,6.9
2019-02-08T09:30:01.807Z,6.97
2019-02-08T09:35:01.152Z,7.03
2019-02-08T09:40:01.401Z,7.09
2019-02-08T09:45:01.671Z,7.14
2019-02-08T09:50:01.970Z,7.23
2019-02-08T09:55:01.223Z,7.33
2019-02-08T10:00:01.497Z,7.47
2019-02-08T10:05:01.759Z,7.54
2019-02-08T10:10:02.070Z,7.64
2019-02-08T10:15:01.322Z,7.73
2019-02-08T10:20:01.681Z,7.73
2019-02-08T10:25:01.993Z,7.82
2019-02-08T10:30:01.291Z,7.87
2019-02-08T10:35:01.622Z,7.9
2019-02-08T10:40:01.921Z,7.97
2019-02-08T10:45:01.195Z,8.03
2019-02-08T10:50:01.509Z,8.11
2019-02-08T10:55:01.777Z,8.17
2019-02-08T11:00:02.086Z,8.16
2019-02-08T11:05:01.350Z,8.23
2019-02-08T11:10:01.647Z,8.23
2019-02-08T11:15:01.890Z,8.26
2019-02-08T11:20:01.174Z,8.2
2019-02-08T11:25:01.462Z,8.18
2019-02-08T11:30:01.830Z,8.11
2019-02-08T11:35:01.115Z,8.2
2019-02-08T11:40:01.407Z,8.16
2019-02-08T11:45:01.695Z,8.08
2019-02-08T11:50:02.024Z,8.04
2019-02-08T11:55:01.326Z,7.93
2019-02-08T12:00:01.622Z,7.88
2019-02-08T12:05:01.933Z,7.86
2019-02-08T12:10:01.251Z,7.88
2019-02-08T12:15:01.592Z,7.79
2019-02-08T12:20:01.942Z,7.76
2019-02-08T12:25:01.245Z,7.77
2019-02-08T12:30:01.541Z,7.69
2019-02-08T12:35:01.893Z,7.69
2019-02-08T12:40:01.215Z,7.69
2019-02-08T12:45:01.555Z,7.68
2019-02-08T12:50:01.852Z,7.69
2019-02-08T12:55:01.146Z,7.68
2019-02-08T13:00:01.417Z,7.68
2019-02-08T13:05:01.716Z,7.63
2019-02-08T13:10:01.958Z,7.62
2019-02-08T13:15:01.212Z,7.61
2019-02-08T13:20:01.493Z,7.6
2019-02-08T13:25:01.807Z,7.6
2019-02-08T13:30:01.110Z,7.54
2019-02-08T13:35:01.456Z,7.52
2019-02-08T13:40:01.761Z,7.5
2019-02-08T13:45:01.141Z,7.49
2019-02-08T13:50:01.519Z,7.45
2019-02-08T13:55:01.810Z,7.48
2019-02-08T14:00:01.104Z,7.49
2019-02-08T14:05:01.447Z,7.5
2019-02-08T14:10:01.742Z,7.5
2019-02-08T14:15:02.052Z,7.53
2019-02-08T14:20:01.495Z,7.58
2019-02-08T14:25:01.978Z,7.58
2019-02-08T14:30:01.251Z,7.59
2019-02-08T14:35:01.579Z,7.67
2019-02-08T14:40:01.856Z,7.72
2019-02-08T14:45:01.275Z,7.74
2019-02-08T14:50:01.560Z,7.84
2019-02-08T14:55:01.855Z,7.86
2019-02-08T15:00:01.136Z,7.88
2019-02-08T15:05:01.671Z,7.91
2019-02-08T15:10:01.185Z,7.93
2019-02-08T15:15:01.486Z,7.96
2019-02-08T15:20:01.767Z,7.97
2019-02-08T15:25:01.143Z,7.97
2019-02-08T15:30:01.457Z,8.01
2019-02-08T15:35:01.779Z,8.02
2019-02-08T15:40:01.888Z,8.04
2019-02-08T15:45:01.188Z,8.04
2019-02-08T15:50:01.688Z,8.07
2019-02-08T15:55:01.981Z,8.05
2019-02-08T16:00:01.344Z,8.06
2019-02-08T16:05:01.722Z,8.15
2019-02-08T16:10:02.025Z,8.09
2019-02-08T16:15:01.270Z,8.15
2019-02-08T16:20:01.581Z,8.14
2019-02-08T16:25:01.880Z,8.15
2019-02-08T16:30:01.147Z,8.15
2019-02-08T16:35:01.458Z,8.2
2019-02-08T16:40:01.779Z,8.22
2019-02-08T16:45:02.053Z,8.22
2019-02-08T16:50:01.311Z,8.22
2019-02-08T16:55:01.607Z,8.24
2019-02-08T17:00:01.959Z,8.28
2019-02-08T17:05:01.217Z,8.32
2019-02-08T17:10:01.451Z,8.35
2019-02-08T17:15:01.766Z,8.43
2019-02-08T17:20:02.129Z,8.45
2019-02-08T17:25:01.355Z,8.43
2019-02-08T17:30:01.653Z,8.47
2019-02-08T17:35:01.981Z,8.47
2019-02-08T17:40:01.280Z,8.49
2019-02-08T17:45:01.570Z,8.49
2019-02-08T17:50:01.897Z,8.45
2019-02-08T17:55:01.154Z,8.42
2019-02-08T18:00:01.535Z,8.38
2019-02-08T18:05:02.017Z,8.39
2019-02-08T18:10:01.266Z,8.39
2019-02-08T18:15:01.558Z,8.43
2019-02-08T18:20:01.917Z,8.44
2019-02-08T18:25:01.192Z,8.39
2019-02-08T18:30:01.498Z,8.35
2019-02-08T18:35:01.818Z,8.39
2019-02-08T18:40:01.170Z,8.36
2019-02-08T18:45:01.454Z,8.36
2019-02-08T18:50:01.751Z,8.34
2019-02-08T18:55:02.049Z,8.29
2019-02-08T19:00:01.488Z,8.3
2019-02-08T19:05:01.820Z,8.34
2019-02-08T19:10:02.046Z,8.36
2019-02-08T19:15:01.356Z,8.3
2019-02-08T19:20:01.637Z,8.28
2019-02-08T19:25:01.952Z,8.26
2019-02-08T19:30:01.203Z,8.27
2019-02-08T19:35:01.587Z,8.28
2019-02-08T19:40:01.899Z,8.26
2019-02-08T19:45:01.183Z,8.32
2019-02-08T19:50:01.463Z,8.24
2019-02-08T19:55:01.790Z,8.19
2019-02-08T20:00:02.077Z,8.17
2019-02-08T20:05:01.352Z,8.14
2019-02-08T20:10:01.662Z,8.14
2019-02-08T20:15:02.036Z,8.19
2019-02-08T20:20:01.312Z,8.21
2019-02-08T20:25:01.690Z,8.26
2019-02-08T20:30:01.971Z,8.28
2019-02-08T20:35:01.342Z,8.16
2019-02-08T20:40:01.806Z,8.14
2019-02-08T20:45:01.160Z,8.14
2019-02-08T20:50:01.617Z,8.18
2019-02-08T20:55:01.898Z,8.19
2019-02-08T21:00:01.172Z,8.18
2019-02-08T21:05:01.481Z,8.16
2019-02-08T21:10:01.784Z,8.15
2019-02-08T21:15:01.314Z,8.15
2019-02-08T21:20:01.570Z,8.15
2019-02-08T21:25:01.830Z,8.17
2019-02-08T21:30:01.178Z,8.22
2019-02-08T21:35:01.534Z,8.21
2019-02-08T21:40:01.851Z,8.14
2019-02-08T21:45:01.139Z,8.16
2019-02-08T21:50:01.455Z,8.13
2019-02-08T21:55:01.764Z,8.12
2019-02-08T22:00:02.068Z,8.07
2019-02-08T22:05:01.347Z,8.08
2019-02-08T22:10:01.692Z,8.04
2019-02-08T22:15:02.005Z,8
2019-02-08T22:20:01.267Z,7.94
2019-02-08T22:25:01.567Z,8.02
2019-02-08T22:30:01.869Z,8.06
2019-02-08T22:35:01.148Z,8.06
2019-02-08T22:40:01.416Z,8.05
2019-02-08T22:45:08.537Z,8.11
2019-02-08T22:50:01.389Z,8.07
2019-02-08T22:55:01.693Z,8.14
2019-02-08T23:00:02.022Z,8.09
2019-02-08T23:05:01.340Z,8.06
2019-02-08T23:10:01.610Z,8.06
2019-02-08T23:15:01.910Z,8.01
2019-02-08T23:20:01.189Z,8.03
2019-02-08T23:25:01.539Z,8
2019-02-08T23:30:01.800Z,8.02
2019-02-08T23:35:01.133Z,8.06
2019-02-08T23:40:01.416Z,8.07
2019-02-08T23:45:01.705Z,8.07
2019-02-08T23:50:01.989Z,8.08
2019-02-08T23:55:01.244Z,8.13
